Time;durP1;ratioP1;P1;durP2;ratioP2;P2;SDS_P1;SDS_P2;PMS_P1;PMS_P2;Temp;Humidity;BMP_temperature;BMP_pressure;BME280_temperature;BME280_humidity;BME280_pressure;Samples;Min_cycle;Max_cycle;Signal;HPM_P1;HPM_P2
2021/12/18 00:00:07;;;;;;;2.78;1.85;;;20.30;27.20;20.70;95485.00;;;;10268958;28;45563;-64
2021/12/18 00:05:08;;;;;;;2.65;1.90;;;20.30;27.10;20.70;95494.00;;;;10269156;28;47257;-64
2021/12/18 00:10:09;;;;;;;2.30;1.67;;;20.30;27.10;20.70;95501.00;;;;10269279;28;45491;-63
2021/12/18 00:15:10;;;;;;;2.28;1.58;;;20.30;27.10;20.70;95503.00;;;;10258919;28;47297;-63
2021/12/18 00:20:13;;;;;;;2.17;1.70;;;20.30;27.10;20.70;95508.00;;;;10285334;28;48147;-63
2021/12/18 00:25:14;;;;;;;2.42;1.63;;;20.30;27.10;20.70;95499.00;;;;10235957;28;47122;-63
2021/12/18 00:30:17;;;;;;;2.40;1.80;;;20.30;27.10;20.70;95499.00;;;;10235420;28;47185;-63
2021/12/18 00:35:17;;;;;;;2.20;1.52;;;20.30;27.10;20.70;95465.00;;;;10235498;28;45425;-63
2021/12/18 00:40:23;;;;;;;2.42;1.90;;;20.30;27.10;20.70;95468.00;;;;10235156;28;47098;-63
2021/12/18 00:45:24;;;;;;;2.75;1.98;;;20.20;27.00;20.70;95450.00;;;;10219933;28;47282;-64
2021/12/18 00:50:30;;;;;;;2.30;1.73;;;20.20;27.00;20.70;95441.00;;;;10234739;28;45266;-63
2021/12/18 00:55:33;;;;;;;2.35;1.50;;;20.20;27.10;20.70;95462.00;;;;10235770;28;46327;-64
2021/12/18 01:00:35;;;;;;;1.65;1.55;;;20.10;27.00;20.70;95460.00;;;;10236303;28;45304;-63
2021/12/18 01:05:35;;;;;;;2.22;1.60;;;20.20;27.00;20.60;95447.00;;;;10234175;28;47184;-63
2021/12/18 01:15:50;;;;;;;1.67;1.30;;;20.20;27.00;20.60;95463.00;;;;10271844;28;45133;-64
2021/12/18 01:26:11;;;;;;;2.08;1.52;;;20.20;27.00;20.60;95441.00;;;;10234146;28;45194;-63
2021/12/18 01:31:11;;;;;;;2.05;1.48;;;20.20;27.00;20.60;95461.00;;;;10232846;28;47410;-63
2021/12/18 01:36:12;;;;;;;1.48;1.38;;;20.20;27.00;20.60;95450.00;;;;10233448;28;45407;-63
2021/12/18 01:41:14;;;;;;;1.63;1.38;;;20.20;27.00;20.60;95448.00;;;;10233305;28;47127;-64
2021/12/18 01:46:38;;;;;;;1.55;1.20;;;20.20;26.90;20.60;95429.00;;;;10233355;28;47477;-64
2021/12/18 01:56:59;;;;;;;1.98;1.50;;;20.20;26.90;20.60;95447.00;;;;10233260;28;45277;-63
2021/12/18 02:02:00;;;;;;;1.88;1.27;;;20.20;27.00;20.60;95429.00;;;;10227183;28;45388;-63
2021/12/18 02:07:03;;;;;;;1.67;1.35;;;20.10;26.90;20.60;95434.00;;;;10230694;28;45230;-63
2021/12/18 02:12:04;;;;;;;1.60;1.40;;;20.10;26.90;20.60;95434.00;;;;10240671;28;48497;-64
2021/12/18 02:22:28;;;;;;;2.42;1.60;;;20.10;26.90;20.60;95430.00;;;;10253758;28;45220;-64
2021/12/18 02:27:30;;;;;;;1.45;1.20;;;20.10;26.80;20.60;95434.00;;;;10215907;28;46917;-64
2021/12/18 02:32:31;;;;;;;1.88;1.55;;;20.10;26.80;20.60;95438.00;;;;10232060;28;47500;-64
2021/12/18 02:37:39;;;;;;;2.00;1.40;;;20.10;26.80;20.50;95416.00;;;;10231823;28;46941;-64
2021/12/18 02:42:40;;;;;;;2.08;1.55;;;20.10;26.80;20.50;95410.00;;;;10216452;28;46897;-63
2021/12/18 02:47:40;;;;;;;1.85;1.35;;;20.10;26.80;20.50;95411.00;;;;10231335;28;45488;-63
2021/12/18 02:52:41;;;;;;;1.67;1.40;;;20.10;26.80;20.50;95409.00;;;;10231272;28;45364;-64
2021/12/18 02:57:42;;;;;;;1.67;1.20;;;20.10;26.80;20.50;95396.00;;;;10231049;28;46969;-63
2021/12/18 03:02:45;;;;;;;1.88;1.55;;;20.10;26.80;20.50;95402.00;;;;10232140;28;45386;-63
2021/12/18 03:07:46;;;;;;;1.80;1.30;;;20.10;26.70;20.50;95402.00;;;;10232001;28;46104;-63
2021/12/18 03:23:46;;;;;;;1.58;1.42;;;20.10;26.70;20.50;95397.00;;;;10244441;28;45214;-63
2021/12/18 03:28:47;;;;;;;1.63;1.30;;;20.10;26.70;20.50;95396.00;;;;10233007;28;48259;-64
2021/12/18 03:33:48;;;;;;;1.75;1.48;;;20.10;26.60;20.50;95402.00;;;;10230435;28;47291;-64
2021/12/18 03:38:48;;;;;;;1.60;1.50;;;20.10;26.60;20.50;95388.00;;;;10230032;28;45586;-63
2021/12/18 03:43:50;;;;;;;1.80;1.42;;;20.10;26.60;20.50;95381.00;;;;10229499;28;46978;-64
2021/12/18 03:48:51;;;;;;;1.80;1.40;;;20.10;26.50;20.50;95377.00;;;;10229545;28;47119;-62
2021/12/18 03:53:51;;;;;;;1.60;1.50;;;20.10;26.50;20.50;95366.00;;;;10229839;28;45331;-64
2021/12/18 03:58:52;;;;;;;2.75;1.42;;;20.10;26.60;20.50;95362.00;;;;10236477;28;45385;-63
2021/12/18 04:03:53;;;;;;;1.92;1.60;;;20.10;26.50;20.50;95366.00;;;;10236507;28;45770;-63
2021/12/18 04:08:54;;;;;;;1.80;1.33;;;20.10;26.50;20.50;95394.00;;;;10236377;28;45139;-64
2021/12/18 04:13:55;;;;;;;1.80;1.48;;;20.10;26.50;20.50;95388.00;;;;10242979;28;47339;-64
2021/12/18 04:18:56;;;;;;;2.00;1.30;;;20.10;26.50;20.50;95376.00;;;;10276096;28;47453;-63
2021/12/18 04:23:57;;;;;;;1.77;1.52;;;20.10;26.40;20.50;95390.00;;;;10268164;28;47967;-64
2021/12/18 04:28:58;;;;;;;1.40;1.30;;;20.00;26.70;20.50;95383.00;;;;10275676;28;45761;-64
2021/12/18 04:34:00;;;;;;;1.73;1.40;;;20.10;26.40;20.50;95405.00;;;;10276090;28;45372;-64
2021/12/18 04:39:01;;;;;;;1.38;1.23;;;20.10;26.40;20.50;95399.00;;;;10275358;28;46288;-63
2021/12/18 04:44:03;;;;;;;1.80;1.60;;;20.10;26.40;20.50;95401.00;;;;10275540;28;46579;-64
2021/12/18 04:49:04;;;;;;;1.48;1.27;;;20.00;26.30;20.50;95396.00;;;;10259740;28;47163;-63
2021/12/18 04:54:05;;;;;;;1.65;1.45;;;20.10;26.30;20.50;95391.00;;;;10277263;28;45312;-63
2021/12/18 04:59:06;;;;;;;1.50;1.30;;;20.10;26.30;20.50;95389.00;;;;10276696;28;45210;-63
2021/12/18 05:04:10;;;;;;;2.00;1.35;;;20.10;26.30;20.50;95380.00;;;;10275231;28;47029;-64
2021/12/18 05:09:13;;;;;;;1.80;1.50;;;20.00;26.30;20.50;95386.00;;;;10258238;28;47067;-63
2021/12/18 05:14:14;;;;;;;1.77;1.50;;;20.10;26.20;20.60;95372.00;;;;10274959;28;46277;-63
2021/12/18 05:19:15;;;;;;;1.60;1.40;;;20.10;26.20;20.60;95378.00;;;;10275458;28;46145;-64
2021/12/18 05:24:15;;;;;;;1.60;1.35;;;20.10;26.20;20.60;95390.00;;;;10273929;28;46885;-63
2021/12/18 05:29:18;;;;;;;1.92;1.40;;;20.20;26.10;20.60;95379.00;;;;10274709;28;46753;-64
2021/12/18 05:34:24;;;;;;;1.70;1.30;;;20.20;26.10;20.70;95380.00;;;;10290941;28;48273;-64
2021/12/18 05:39:28;;;;;;;1.77;1.33;;;20.20;26.10;20.70;95390.00;;;;10275059;28;47061;-63
2021/12/18 05:44:29;;;;;;;1.70;1.42;;;20.20;26.00;20.70;95373.00;;;;10290403;28;46524;-63
2021/12/18 05:49:30;;;;;;;1.75;1.45;;;20.30;26.10;20.70;95375.00;;;;10274112;28;47438;-63
2021/12/18 05:54:34;;;;;;;1.30;1.20;;;20.30;26.00;20.80;95383.00;;;;10273917;28;45493;-64
2021/12/18 05:59:36;;;;;;;1.73;1.38;;;20.30;25.90;20.80;95379.00;;;;10275293;28;45281;-63
2021/12/18 06:04:37;;;;;;;1.92;1.48;;;20.30;25.90;20.80;95377.00;;;;10274829;28;45370;-62
2021/12/18 06:09:38;;;;;;;1.85;1.40;;;20.30;25.90;20.80;95387.00;;;;10273219;28;45177;-64
2021/12/18 06:14:38;;;;;;;3.03;1.70;;;20.30;25.80;20.80;95375.00;;;;10273227;28;45457;-63
2021/12/18 06:19:39;;;;;;;2.83;1.88;;;20.40;25.80;20.80;95382.00;;;;10273112;28;45396;-63
2021/12/18 06:24:40;;;;;;;3.80;2.30;;;20.40;25.70;20.80;95396.00;;;;10273365;28;45393;-63
2021/12/18 06:29:42;;;;;;;3.28;2.35;;;20.40;25.70;20.80;95380.00;;;;10273171;28;45424;-63
2021/12/18 06:34:42;;;;;;;2.72;2.10;;;20.30;25.60;20.80;95381.00;;;;10273932;28;46147;-63
2021/12/18 06:39:43;;;;;;;3.05;2.15;;;20.40;25.60;20.80;95383.00;;;;10274420;28;45360;-63
2021/12/18 06:44:44;;;;;;;4.20;2.58;;;20.40;25.60;20.80;95382.00;;;;10271979;28;48201;-63
2021/12/18 06:49:45;;;;;;;4.70;3.13;;;20.40;25.60;20.80;95400.00;;;;10272275;28;48064;-65
2021/12/18 06:54:45;;;;;;;4.75;2.88;;;20.40;25.50;20.90;95387.00;;;;10273659;28;46518;-63
2021/12/18 06:59:46;;;;;;;5.25;2.90;;;20.40;25.40;20.90;95403.00;;;;10272169;28;45295;-63
2021/12/18 07:04:47;;;;;;;5.30;2.95;;;20.40;25.40;20.90;95408.00;;;;10272280;28;48103;-63
2021/12/18 07:09:48;;;;;;;4.90;2.85;;;20.40;25.40;20.90;95390.00;;;;10271662;28;46892;-63
2021/12/18 07:14:48;;;;;;;3.67;2.40;;;20.50;25.30;20.90;95406.00;;;;10257180;28;46784;-63
2021/12/18 07:19:49;;;;;;;3.55;2.55;;;20.50;25.40;20.90;95403.00;;;;10231797;28;46300;-63
2021/12/18 07:24:50;;;;;;;3.40;2.58;;;20.40;25.20;20.90;95423.00;;;;10231513;28;45258;-64
2021/12/18 07:29:51;;;;;;;3.22;2.25;;;20.50;25.20;20.90;95422.00;;;;10230524;28;45300;-64
2021/12/18 07:34:52;;;;;;;2.85;2.22;;;20.50;25.10;20.90;95424.00;;;;10231310;28;45525;-63
2021/12/18 07:39:53;;;;;;;3.45;2.45;;;20.50;25.20;20.90;95431.00;;;;10214935;28;48455;-63
2021/12/18 07:44:54;;;;;;;3.78;2.42;;;20.50;25.20;20.90;95424.00;;;;10230987;28;45349;-63
2021/12/18 07:49:54;;;;;;;3.58;2.20;;;20.50;25.10;20.90;95425.00;;;;10230623;28;47171;-62
2021/12/18 07:54:55;;;;;;;3.45;2.40;;;20.50;25.10;20.90;95411.00;;;;10230566;28;46991;-64
2021/12/18 07:59:56;;;;;;;3.45;2.28;;;20.50;25.10;20.90;95419.00;;;;10230549;28;45346;-64
2021/12/18 08:04:56;;;;;;;4.45;2.67;;;20.50;25.10;20.90;95398.00;;;;10231556;28;45957;-63
2021/12/18 08:09:57;;;;;;;3.50;2.47;;;20.50;25.10;20.90;95421.00;;;;10230472;28;46483;-63
2021/12/18 08:14:58;;;;;;;3.55;2.40;;;20.50;25.10;21.00;95401.00;;;;10262669;28;46403;-64
2021/12/18 08:20:00;;;;;;;5.00;2.25;;;20.50;25.20;21.00;95414.00;;;;10269949;28;48463;-64
2021/12/18 08:25:01;;;;;;;3.42;2.10;;;20.50;25.20;21.00;95409.00;;;;10262708;28;46999;-65
2021/12/18 08:30:03;;;;;;;3.08;1.85;;;20.60;25.60;21.10;95417.00;;;;10269318;28;45434;-64
2021/12/18 08:35:04;;;;;;;2.95;1.90;;;20.60;25.60;21.10;95402.00;;;;10269171;28;47134;-65
2021/12/18 08:40:06;;;;;;;2.28;1.73;;;20.60;26.00;21.20;95413.00;;;;10266637;28;46643;-64
2021/12/18 08:45:08;;;;;;;2.45;1.95;;;20.70;25.90;21.20;95421.00;;;;10277693;28;45098;-63
2021/12/18 08:50:13;;;;;;;2.95;1.95;;;20.70;25.90;21.10;95408.00;;;;10275403;28;47302;-63
2021/12/18 08:55:17;;;;;;;2.97;1.90;;;20.70;26.10;21.20;95412.00;;;;10275689;28;45433;-64
2021/12/18 09:00:22;;;;;;;2.50;1.90;;;20.70;26.00;21.20;95425.00;;;;10270475;28;45868;-63
2021/12/18 09:05:23;;;;;;;3.90;1.90;;;20.70;26.00;21.30;95402.00;;;;10241249;28;47454;-69
2021/12/18 09:10:25;;;;;;;2.67;1.50;;;20.80;26.50;21.20;95410.00;;;;10271634;28;45856;-63
2021/12/18 09:15:27;;;;;;;2.28;1.60;;;20.70;26.00;21.10;95397.00;;;;10274012;28;45338;-63
2021/12/18 09:20:28;;;;;;;3.00;2.10;;;20.70;26.00;21.10;95395.00;;;;10275184;28;48013;-63
2021/12/18 09:25:29;;;;;;;2.65;1.92;;;20.60;25.80;21.10;95412.00;;;;10274459;28;45521;-63
2021/12/18 09:30:29;;;;;;;2.60;1.67;;;20.60;25.60;21.10;95416.00;;;;10275034;28;45289;-63
2021/12/18 09:35:30;;;;;;;2.88;1.88;;;20.60;25.60;21.10;95408.00;;;;10275509;28;45552;-63
2021/12/18 09:40:32;;;;;;;2.92;1.80;;;20.60;25.50;21.10;95406.00;;;;10273565;28;46228;-63
2021/12/18 09:45:33;;;;;;;2.60;1.70;;;20.60;25.50;21.10;95409.00;;;;10274372;28;45477;-63
2021/12/18 09:50:36;;;;;;;2.58;1.70;;;20.60;25.50;21.10;95397.00;;;;10275824;28;45132;-62
2021/12/18 09:55:37;;;;;;;2.15;1.60;;;20.60;25.50;21.10;95371.00;;;;10274255;28;45301;-63
2021/12/18 10:00:38;;;;;;;2.47;1.88;;;20.70;25.40;21.10;95373.00;;;;10273973;28;45964;-63
2021/12/18 10:05:39;;;;;;;3.00;1.90;;;20.60;25.40;21.10;95364.00;;;;10273660;28;46453;-63
2021/12/18 10:11:02;;;;;;;3.90;2.67;;;20.60;25.40;21.00;95358.00;;;;10273530;28;47019;-63
2021/12/18 10:16:23;;;;;;;3.83;2.90;;;20.60;25.00;21.00;95351.00;;;;10274611;28;45324;-63
2021/12/18 10:21:29;;;;;;;3.65;2.58;;;20.60;24.80;21.00;95333.00;;;;10261992;28;46291;-63
2021/12/18 10:26:42;;;;;;;2.65;2.17;;;20.60;24.60;21.00;95340.00;;;;10232702;28;45345;-63
2021/12/18 10:31:45;;;;;;;4.43;2.40;;;20.60;24.70;21.10;95339.00;;;;10251988;28;45359;-63
2021/12/18 10:37:15;;;;;;;3.30;2.40;;;20.60;24.80;21.10;95330.00;;;;10273270;28;45711;-63
2021/12/18 10:42:23;;;;;;;2.85;2.35;;;20.60;24.60;21.00;95341.00;;;;10274298;28;45338;-62
2021/12/18 10:47:24;;;;;;;4.30;1.90;;;20.60;24.70;21.10;95342.00;;;;10273129;28;45365;-66
2021/12/18 10:52:38;;;;;;;3.22;1.92;;;20.60;24.70;21.10;95341.00;;;;10271374;28;45431;-63
2021/12/18 10:57:54;;;;;;;3.58;1.73;;;20.60;24.80;21.20;95334.00;;;;10272623;28;46416;-63
2021/12/18 11:02:54;;;;;;;2.30;1.63;;;20.60;25.00;21.10;95324.00;;;;10270800;28;47020;-63
2021/12/18 11:08:12;;;;;;;2.28;1.60;;;20.70;25.10;21.20;95314.00;;;;10272243;28;45803;-63
2021/12/18 11:18:33;;;;;;;1.77;1.25;;;20.70;25.70;21.20;95316.00;;;;10231809;28;45382;-63
2021/12/18 11:24:06;;;;;;;2.30;1.60;;;20.70;25.20;21.20;95309.00;;;;10232022;28;45351;-64
2021/12/18 11:29:20;;;;;;;3.20;1.63;;;20.70;25.30;21.20;95304.00;;;;10231266;28;46627;-63
2021/12/18 11:34:21;;;;;;;3.40;1.70;;;20.70;25.40;21.10;95294.00;;;;10231258;28;47440;-63
2021/12/18 11:39:24;;;;;;;3.72;1.73;;;20.70;25.50;21.20;95285.00;;;;10231455;28;45192;-63
2021/12/18 11:44:35;;;;;;;3.58;1.70;;;20.70;25.50;21.10;95286.00;;;;10231293;28;45424;-64
2021/12/18 11:49:43;;;;;;;4.28;1.77;;;20.60;25.60;21.10;95276.00;;;;10230780;28;47116;-63
2021/12/18 11:54:50;;;;;;;2.67;1.60;;;20.70;25.60;21.10;95274.00;;;;10230937;28;47293;-63
2021/12/18 11:59:51;;;;;;;2.72;1.30;;;20.60;25.70;21.10;95272.00;;;;10231221;28;45543;-63
2021/12/18 12:05:05;;;;;;;2.45;1.35;;;20.60;25.70;21.10;95248.00;;;;10231717;28;46248;-63
2021/12/18 12:10:48;;;;;;;2.40;1.30;;;20.60;25.80;21.20;95255.00;;;;10230492;28;48147;-63
2021/12/18 12:15:52;;;;;;;5.03;1.40;;;20.60;25.80;21.20;95246.00;;;;10252455;28;47929;-63
2021/12/18 12:20:53;;;;;;;3.08;1.45;;;20.60;25.90;21.20;95227.00;;;;10277875;28;45220;-63
2021/12/18 12:26:01;;;;;;;2.80;1.40;;;20.60;25.90;21.10;95219.00;;;;10277303;28;45998;-63
2021/12/18 12:31:01;;;;;;;2.47;1.23;;;20.70;25.90;21.20;95219.00;;;;10277003;28;45316;-63
2021/12/18 12:36:05;;;;;;;2.40;1.40;;;20.70;25.90;21.10;95201.00;;;;10277794;28;45441;-63
2021/12/18 12:41:49;;;;;;;2.95;1.20;;;20.70;25.90;21.20;95208.00;;;;10278402;28;45213;-63
2021/12/18 12:47:16;;;;;;;2.90;1.45;;;20.60;25.90;21.10;95215.00;;;;10276792;28;46442;-62
2021/12/18 12:52:20;;;;;;;2.13;1.30;;;20.60;26.00;21.10;95190.00;;;;10275976;28;46413;-63
2021/12/18 12:57:24;;;;;;;2.30;1.30;;;20.60;26.00;21.20;95210.00;;;;10276253;28;45402;-63
2021/12/18 13:02:27;;;;;;;3.70;1.60;;;20.70;26.00;21.20;95201.00;;;;10308819;28;46753;-63
2021/12/18 13:07:28;;;;;;;1.90;1.10;;;20.70;26.00;21.20;95183.00;;;;10259019;28;47049;-62
2021/12/18 13:12:29;;;;;;;3.33;1.35;;;20.70;26.10;21.20;95183.00;;;;10260249;28;45341;-63
2021/12/18 13:17:29;;;;;;;2.45;1.08;;;20.70;26.00;21.20;95172.00;;;;10263756;28;45533;-63
2021/12/18 13:22:33;;;;;;;3.03;1.30;;;20.70;26.00;21.20;95170.00;;;;10235325;28;46533;-65
2021/12/18 13:27:36;;;;;;;2.58;1.10;;;20.70;26.90;21.20;95177.00;;;;10233633;28;45250;-64
2021/12/18 13:32:37;;;;;;;1.75;1.10;;;20.70;26.20;21.10;95164.00;;;;10234620;28;45534;-64
2021/12/18 13:37:37;;;;;;;2.72;1.40;;;20.70;26.10;21.10;95157.00;;;;10233875;28;45549;-65
2021/12/18 13:42:38;;;;;;;2.50;1.23;;;20.60;26.00;21.10;95170.00;;;;10217457;28;46769;-64
2021/12/18 13:47:47;;;;;;;2.00;1.20;;;20.60;25.90;21.10;95161.00;;;;10233473;28;45388;-64
2021/12/18 13:52:58;;;;;;;2.25;1.40;;;20.60;25.90;21.10;95168.00;;;;10233184;28;46446;-64
2021/12/18 13:58:26;;;;;;;2.78;1.60;;;20.60;26.00;21.10;95143.00;;;;10232944;28;47558;-64
2021/12/18 14:03:29;;;;;;;2.45;1.45;;;20.60;25.90;21.10;95162.00;;;;10233163;28;46431;-65
2021/12/18 14:08:30;;;;;;;3.15;1.67;;;20.60;25.90;21.10;95153.00;;;;10233472;28;46497;-65
2021/12/18 14:13:42;;;;;;;2.47;1.30;;;20.60;25.90;21.10;95157.00;;;;10245905;28;45255;-63
2021/12/18 14:18:52;;;;;;;2.53;1.42;;;20.60;25.80;21.10;95147.00;;;;10233247;28;47304;-63
2021/12/18 14:23:58;;;;;;;2.35;1.48;;;20.60;25.90;21.10;95139.00;;;;10246139;28;47375;-64
2021/12/18 14:29:15;;;;;;;2.22;1.50;;;20.60;25.90;21.10;95142.00;;;;10272363;28;45229;-64
2021/12/18 14:34:33;;;;;;;3.58;1.73;;;20.60;25.90;21.10;95141.00;;;;10272196;28;45314;-64
2021/12/18 14:39:43;;;;;;;2.70;1.70;;;20.60;25.90;21.10;95147.00;;;;10272542;28;45258;-63
2021/12/18 14:45:20;;;;;;;2.08;1.55;;;20.60;25.80;21.10;95159.00;;;;10273861;28;45325;-64
2021/12/18 14:50:28;;;;;;;3.67;1.80;;;20.60;25.80;21.00;95149.00;;;;10224508;28;45441;-63
2021/12/18 14:55:40;;;;;;;2.72;1.80;;;20.60;25.90;21.10;95153.00;;;;10288858;28;46610;-63
2021/12/18 15:00:46;;;;;;;2.47;1.60;;;20.60;25.80;21.10;95142.00;;;;10268845;28;45439;-64
2021/12/18 15:05:54;;;;;;;3.17;1.77;;;20.60;25.80;21.10;95147.00;;;;10271783;28;46580;-64
2021/12/18 15:11:22;;;;;;;1.98;1.27;;;20.60;25.80;21.10;95140.00;;;;10270396;28;46381;-64
2021/12/18 15:16:36;;;;;;;2.13;1.27;;;20.60;25.80;21.10;95125.00;;;;10227603;28;45570;-63
2021/12/18 15:21:42;;;;;;;2.05;1.48;;;20.60;26.00;21.20;95127.00;;;;10236076;28;47145;-62
2021/12/18 15:26:45;;;;;;;2.20;1.58;;;20.70;26.10;21.20;95122.00;;;;10286110;28;46878;-61
2021/12/18 15:31:47;;;;;;;2.38;1.60;;;20.70;26.30;21.20;95123.00;;;;10261017;28;46248;-62
2021/12/18 15:36:48;;;;;;;2.65;1.70;;;20.70;26.30;21.20;95141.00;;;;10229068;28;45208;-62
2021/12/18 15:41:51;;;;;;;2.45;1.58;;;20.80;26.40;21.20;95124.00;;;;10231169;28;45211;-63
2021/12/18 15:46:53;;;;;;;2.72;1.70;;;20.80;26.40;21.30;95135.00;;;;10229933;28;45214;-64
2021/12/18 15:51:54;;;;;;;3.33;1.50;;;20.80;26.40;21.30;95148.00;;;;10232590;28;46953;-64
2021/12/18 15:56:55;;;;;;;3.60;1.80;;;20.80;26.40;21.30;95133.00;;;;10237492;28;46658;-63
2021/12/18 16:01:56;;;;;;;1.92;1.35;;;20.80;26.40;21.30;95144.00;;;;10233596;28;46251;-64
2021/12/18 16:06:56;;;;;;;2.72;1.23;;;20.80;26.60;21.40;95161.00;;;;10236744;28;45187;-62
2021/12/18 16:11:57;;;;;;;3.53;1.65;;;20.90;26.70;21.40;95163.00;;;;10238428;28;47050;-66
2021/12/18 16:16:58;;;;;;;3.53;2.00;;;20.90;26.50;21.40;95142.00;;;;10265865;28;45270;-62
2021/12/18 16:21:59;;;;;;;2.95;2.10;;;20.90;26.80;21.30;95160.00;;;;10262624;28;45463;-62
2021/12/18 16:27:00;;;;;;;2.35;1.60;;;20.80;26.60;21.30;95166.00;;;;10276751;28;46183;-63
2021/12/18 16:32:00;;;;;;;2.05;1.52;;;20.80;26.60;21.30;95172.00;;;;10253361;28;48210;-65
2021/12/18 16:37:06;;;;;;;3.90;1.80;;;20.80;26.70;21.40;95186.00;;;;10274160;28;45286;-63
2021/12/18 16:42:07;;;;;;;1.83;1.40;;;20.90;26.70;21.40;95184.00;;;;10274999;28;46601;-63
2021/12/18 16:47:09;;;;;;;2.75;1.83;;;20.90;26.70;21.40;95195.00;;;;10276124;28;46201;-64
2021/12/18 16:52:11;;;;;;;2.65;1.70;;;20.90;27.20;21.40;95202.00;;;;10274301;28;45282;-63
2021/12/18 16:57:11;;;;;;;3.08;1.92;;;20.90;26.70;21.40;95217.00;;;;10275710;28;45426;-63
2021/12/18 17:02:13;;;;;;;4.18;2.63;;;20.90;26.60;21.40;95205.00;;;;10275428;28;47194;-63
2021/12/18 17:07:14;;;;;;;4.70;2.40;;;20.90;26.60;21.40;95195.00;;;;10275845;28;47023;-63
2021/12/18 17:12:15;;;;;;;3.65;2.13;;;20.90;26.50;21.40;95216.00;;;;10255014;28;45384;-63
2021/12/18 17:17:15;;;;;;;4.50;2.30;;;20.90;26.40;21.40;95208.00;;;;10256990;28;47555;-64
2021/12/18 17:22:17;;;;;;;4.15;2.45;;;20.90;26.40;21.50;95220.00;;;;10273979;28;45481;-65
2021/12/18 17:27:18;;;;;;;3.60;2.20;;;21.00;26.40;21.50;95232.00;;;;10273712;28;45424;-64
2021/12/18 17:32:19;;;;;;;3.85;2.35;;;21.00;26.30;21.50;95236.00;;;;10270065;28;45589;-64
2021/12/18 17:37:20;;;;;;;3.08;2.10;;;21.00;26.30;21.50;95224.00;;;;10275040;28;45314;-60
2021/12/18 17:42:21;;;;;;;3.08;1.85;;;21.00;26.20;21.50;95232.00;;;;10274434;28;46242;-66
2021/12/18 17:47:21;;;;;;;2.58;1.88;;;21.00;26.20;21.50;95219.00;;;;10272634;28;47391;-63
2021/12/18 17:52:23;;;;;;;2.00;1.70;;;21.00;26.10;21.60;95250.00;;;;10274495;28;45346;-64
2021/12/18 17:57:23;;;;;;;2.60;1.75;;;21.10;26.30;21.80;95255.00;;;;10273795;28;47269;-63
2021/12/18 18:02:25;;;;;;;3.65;1.75;;;21.20;26.20;21.80;95242.00;;;;10273865;28;45192;-62
2021/12/18 18:07:26;;;;;;;2.88;1.75;;;21.30;26.20;21.90;95249.00;;;;10274547;28;46316;-63
2021/12/18 18:12:29;;;;;;;2.63;1.77;;;21.30;26.10;21.90;95265.00;;;;10276650;28;47221;-62
2021/12/18 18:17:30;;;;;;;2.60;1.70;;;21.40;26.10;22.00;95252.00;;;;10234231;28;46839;-63
2021/12/18 18:22:31;;;;;;;2.33;1.60;;;21.40;26.10;22.00;95260.00;;;;10233236;28;46814;-62
2021/12/18 18:27:32;;;;;;;2.30;1.58;;;21.40;26.10;22.00;95269.00;;;;10267626;28;45586;-62
2021/12/18 18:32:33;;;;;;;2.80;1.85;;;21.50;26.10;22.00;95279.00;;;;10272635;28;47205;-63
2021/12/18 18:37:33;;;;;;;2.42;1.67;;;21.40;26.10;21.90;95275.00;;;;10272843;28;45327;-62
2021/12/18 18:42:34;;;;;;;2.38;1.52;;;21.40;26.10;21.80;95281.00;;;;10273207;28;48014;-62
2021/12/18 18:47:44;;;;;;;2.45;1.70;;;21.40;26.10;21.80;95293.00;;;;10273061;28;45531;-63
2021/12/18 18:52:45;;;;;;;2.38;1.58;;;21.30;26.20;21.80;95292.00;;;;10261396;28;45486;-63
2021/12/18 18:57:46;;;;;;;2.38;1.60;;;21.30;26.20;21.80;95296.00;;;;10271795;28;46468;-62
2021/12/18 19:02:48;;;;;;;2.45;1.60;;;21.30;26.30;21.80;95292.00;;;;10269947;28;45414;-63
2021/12/18 19:07:49;;;;;;;2.45;1.80;;;21.20;26.30;21.80;95301.00;;;;10250736;28;45620;-63
2021/12/18 19:12:50;;;;;;;2.15;1.58;;;21.30;26.30;21.90;95305.00;;;;10248801;28;45379;-62
2021/12/18 19:17:53;;;;;;;3.40;1.85;;;21.30;26.30;21.90;95311.00;;;;10242887;28;47120;-63
2021/12/18 19:22:58;;;;;;;3.22;1.83;;;21.40;26.30;21.90;95297.00;;;;10266035;28;45394;-63
2021/12/18 19:27:58;;;;;;;1.88;1.50;;;21.40;26.40;22.00;95282.00;;;;10270102;28;45696;-63
2021/12/18 19:33:00;;;;;;;2.30;1.63;;;21.40;26.30;22.00;95291.00;;;;10254536;28;47800;-63
2021/12/18 19:38:05;;;;;;;2.20;1.50;;;21.40;26.30;22.00;95296.00;;;;10270585;28;45570;-63
2021/12/18 19:43:06;;;;;;;2.35;1.55;;;21.50;26.30;22.00;95290.00;;;;10269675;28;47481;-63
2021/12/18 19:48:07;;;;;;;1.88;1.40;;;21.40;26.20;22.00;95290.00;;;;10270216;28;46881;-63
2021/12/18 19:53:08;;;;;;;2.15;1.60;;;21.40;26.20;21.90;95308.00;;;;10270059;28;45378;-63
2021/12/18 19:58:09;;;;;;;2.72;1.60;;;21.40;26.30;21.90;95294.00;;;;10270109;28;45716;-63
2021/12/18 20:08:19;;;;;;;1.65;1.40;;;21.40;26.30;21.80;95298.00;;;;10270296;28;46037;-63
2021/12/18 20:13:20;;;;;;;1.77;1.33;;;21.30;26.30;21.90;95278.00;;;;10252273;28;46296;-63
2021/12/18 20:18:21;;;;;;;1.90;1.50;;;21.30;26.30;21.90;95296.00;;;;10229348;28;47154;-63
2021/12/18 20:23:22;;;;;;;2.35;1.42;;;21.30;26.30;21.90;95307.00;;;;10229010;28;48531;-64
2021/12/18 20:28:23;;;;;;;1.83;1.45;;;21.30;26.90;21.90;95308.00;;;;10229523;28;46931;-63
2021/12/18 20:33:28;;;;;;;1.77;1.40;;;21.40;26.40;22.00;95317.00;;;;10229395;28;45504;-63
2021/12/18 20:38:31;;;;;;;1.67;1.23;;;21.40;26.30;22.00;95311.00;;;;10233483;28;45218;-63
2021/12/18 20:43:32;;;;;;;2.25;1.50;;;21.50;26.40;22.00;95307.00;;;;10235452;28;47140;-63
2021/12/18 20:48:37;;;;;;;1.90;1.30;;;21.50;26.30;22.00;95293.00;;;;10235264;28;47172;-63
2021/12/18 20:53:39;;;;;;;1.70;1.40;;;21.50;26.30;22.00;95296.00;;;;10235080;28;45197;-63
2021/12/18 20:58:43;;;;;;;1.60;1.25;;;21.50;26.30;22.00;95299.00;;;;10235533;28;45187;-63
2021/12/18 21:03:46;;;;;;;1.83;1.30;;;21.50;26.40;22.00;95302.00;;;;10235016;28;48009;-63
2021/12/18 21:08:47;;;;;;;1.40;1.20;;;21.50;26.30;21.90;95291.00;;;;10235071;28;46000;-63
2021/12/18 21:13:49;;;;;;;1.33;1.17;;;21.40;26.30;21.90;95285.00;;;;10240514;28;47303;-64
2021/12/18 21:18:50;;;;;;;1.63;1.25;;;21.40;26.30;21.90;95285.00;;;;10274848;28;46911;-63
2021/12/18 21:23:51;;;;;;;1.85;1.30;;;21.40;26.40;21.90;95281.00;;;;10274534;28;46193;-63
2021/12/18 21:28:52;;;;;;;1.38;1.20;;;21.30;26.40;21.80;95276.00;;;;10273929;28;48440;-63
2021/12/18 21:34:03;;;;;;;2.05;1.30;;;21.30;26.40;21.80;95274.00;;;;10274794;28;45520;-63
2021/12/18 21:39:13;;;;;;;1.20;1.10;;;21.30;26.40;21.80;95283.00;;;;10274549;28;45243;-63
2021/12/18 21:44:13;;;;;;;2.00;1.38;;;21.20;26.40;21.70;95278.00;;;;10274883;28;45402;-64
2021/12/18 21:49:15;;;;;;;1.92;1.40;;;21.20;26.50;21.70;95283.00;;;;10270370;28;45498;-64
2021/12/18 21:54:17;;;;;;;1.23;1.02;;;21.20;26.50;21.70;95279.00;;;;10270171;28;46290;-63
2021/12/18 21:59:18;;;;;;;1.33;1.20;;;21.20;26.50;21.70;95278.00;;;;10272635;28;46863;-64
2021/12/18 22:04:20;;;;;;;1.70;1.17;;;21.20;26.50;21.70;95268.00;;;;10270273;28;47492;-64
2021/12/18 22:09:21;;;;;;;1.45;1.20;;;21.20;26.50;21.70;95274.00;;;;10270387;28;47562;-64
2021/12/18 22:14:24;;;;;;;1.52;1.20;;;21.10;26.50;21.70;95291.00;;;;10247088;28;45275;-63
2021/12/18 22:19:26;;;;;;;2.05;1.02;;;21.20;26.60;21.70;95292.00;;;;10232883;28;47291;-62
2021/12/18 22:24:27;;;;;;;1.73;1.23;;;21.10;26.50;21.70;95253.00;;;;10233144;28;47180;-63
2021/12/18 22:29:28;;;;;;;1.50;1.40;;;21.10;26.50;21.70;95259.00;;;;10231871;28;48380;-63
2021/12/18 22:34:29;;;;;;;1.45;1.20;;;21.10;26.50;21.60;95251.00;;;;10232766;28;45162;-62
2021/12/18 22:39:30;;;;;;;2.08;1.25;;;21.10;26.50;21.60;95273.00;;;;10232943;28;45253;-62
2021/12/18 22:44:30;;;;;;;1.20;1.10;;;21.10;26.50;21.60;95257.00;;;;10232494;28;45190;-63
2021/12/18 22:49:31;;;;;;;1.35;1.10;;;21.10;26.60;21.60;95259.00;;;;10231995;28;45728;-64
2021/12/18 22:54:32;;;;;;;1.58;1.33;;;21.10;26.60;21.60;95250.00;;;;10231958;28;48326;-63